Aviation Digital Data Service (ADDS)

Output produced by METARs form (0452 UTC 20 September 2020)
found at http://aviationweather.gov/metar/data/
 
METAR text: KCHO 200353Z 00000KT 10SM CLR 08/06 A3038 RMK AO2 SLP287 T00780061
Conditions at: KCHO (CHARLOTTESVILLE , VA, US) observed 0353 UTC 20 September 2020
Temperature: 7.8°C (46°F)
Dewpoint: 6.1°C (43°F) [RH = 89%]
Pressure (altimeter): 30.38 inches Hg (1028.9 mb)
[Sea-level pressure: 1028.7 mb]
Winds: calm
Visibility: 10 or more miles (16+ km)
Ceiling: at least 12,000 feet AGL
Clouds: sky clear below 12,000 feet AGL
Weather: no significant weather observed at this time

Forecast for: KCHO (CHARLOTTESVILLE , VA, US)
Text: KCHO 192322Z 2000/2024 06003KT P6SM SCT250
Forecast period: 0000 to 2000 UTC 20 September 2020
Forecast type: FROM: standard forecast or significant change
Winds: from the ENE (60 degrees) at 3 MPH (3 knots; 1.5 m/s)
Visibility: 6 or more miles (10+ km)
Ceiling: at least 12,000 feet AGL
Clouds: scattered clouds at 25000 feet AGL
Weather: no significant weather forecast for this period
Text: FM202000 05007KT P6SM SKC
Forecast period: 2000 UTC 20 September 2020 to 0000 UTC 21 September 2020
Forecast type: FROM: standard forecast or significant change
Winds: from the NE (50 degrees) at 8 MPH (7 knots; 3.6 m/s)
Visibility: 6 or more miles (10+ km)
Clouds: clear skies
Weather: no significant weather forecast for this period